createdAt,value
2024-02-02T00:02:19.066Z,77.84
2024-02-02T00:04:58.440Z,79.14
2024-02-02T00:07:42.984Z,79.67
2024-02-02T00:10:22.937Z,79.70
2024-02-02T00:13:02.279Z,79.61
2024-02-02T00:15:41.619Z,79.28
2024-02-02T00:18:21.129Z,79.45
2024-02-02T00:21:00.533Z,79.89
2024-02-02T00:23:44.979Z,79.87
2024-02-02T00:26:24.274Z,79.48
2024-02-02T00:29:03.537Z,78.86
2024-02-02T00:31:42.929Z,79.05
2024-02-02T00:34:23.040Z,79.04
2024-02-02T00:37:02.380Z,79.31
2024-02-02T00:39:47.091Z,79.32
2024-02-02T00:42:26.560Z,79.60
2024-02-02T00:45:06.392Z,79.09
2024-02-02T00:47:45.841Z,78.94
2024-02-02T00:50:25.409Z,79.08
2024-02-02T00:53:04.725Z,79.54
2024-02-02T00:55:49.053Z,80.00
2024-02-02T00:58:28.358Z,79.60
2024-02-02T01:01:09.392Z,79.45
2024-02-02T01:03:48.771Z,79.16
2024-02-02T01:06:28.139Z,80.10
2024-02-02T01:09:07.611Z,80.26
2024-02-02T01:11:55.804Z,79.63
2024-02-02T01:14:35.257Z,79.74
2024-02-02T01:17:15.547Z,79.97
2024-02-02T01:19:54.961Z,80.00
2024-02-02T01:22:34.299Z,80.32
2024-02-02T01:25:14.540Z,80.28
2024-02-02T01:27:59.191Z,80.43
2024-02-02T01:30:38.507Z,79.33
2024-02-02T01:33:17.926Z,79.65
2024-02-02T01:35:57.378Z,79.98
2024-02-02T01:38:36.717Z,80.77
2024-02-02T01:41:16.605Z,80.95
2024-02-02T01:44:01.270Z,80.90
2024-02-02T01:46:40.991Z,80.05
2024-02-02T01:49:20.432Z,79.67
2024-02-02T01:51:59.920Z,80.56
2024-02-02T01:54:40.058Z,80.37
2024-02-02T01:57:19.837Z,80.70
2024-02-02T02:00:04.623Z,80.16
2024-02-02T02:02:44.010Z,80.49
2024-02-02T02:05:23.420Z,80.27
2024-02-02T02:08:02.822Z,80.68
2024-02-02T02:10:42.299Z,80.55
2024-02-02T02:13:22.087Z,80.42
2024-02-02T02:16:06.499Z,80.21
2024-02-02T02:18:52.985Z,79.53
2024-02-02T02:21:43.583Z,80.04
2024-02-02T02:24:23.137Z,80.34
2024-02-02T02:27:02.546Z,80.04
2024-02-02T02:29:41.890Z,80.13
2024-02-02T02:32:21.390Z,79.47
2024-02-02T02:35:00.733Z,79.43
2024-02-02T02:37:45.505Z,80.18
2024-02-02T02:40:24.974Z,80.79
2024-02-02T02:43:04.247Z,80.72
2024-02-02T02:45:43.726Z,81.08
2024-02-02T02:48:23.165Z,81.35
2024-02-02T02:51:02.570Z,81.29
2024-02-02T02:53:47.609Z,81.47
2024-02-02T02:56:27.262Z,81.32
2024-02-02T02:59:06.548Z,81.55
2024-02-02T03:01:46.164Z,81.62
2024-02-02T03:04:25.536Z,81.09
2024-02-02T03:07:05.717Z,81.12
2024-02-02T03:09:50.202Z,81.04
2024-02-02T03:12:29.645Z,81.57
2024-02-02T03:15:09.061Z,81.02
2024-02-02T03:17:48.440Z,81.22
2024-02-02T03:20:28.873Z,80.91
2024-02-02T03:23:08.180Z,81.30
2024-02-02T03:25:52.537Z,81.53
2024-02-02T03:28:31.828Z,81.36
2024-02-02T03:31:11.257Z,81.68
2024-02-02T03:33:52.775Z,81.68
2024-02-02T03:36:32.249Z,81.66
2024-02-02T03:39:11.704Z,81.46
2024-02-02T03:41:56.102Z,81.62
2024-02-02T03:44:35.393Z,82.11
2024-02-02T03:47:15.238Z,81.60
2024-02-02T03:49:54.501Z,81.80
2024-02-02T03:52:33.878Z,82.10
2024-02-02T03:55:13.944Z,81.99
2024-02-02T03:57:58.826Z,81.81
2024-02-02T04:00:38.184Z,82.44
2024-02-02T04:03:19.232Z,82.12
2024-02-02T04:05:58.870Z,81.66
2024-02-02T04:08:38.616Z,81.77
2024-02-02T04:11:18.593Z,81.92
2024-02-02T04:14:02.904Z,81.51
2024-02-02T04:16:42.369Z,81.07
2024-02-02T04:19:23.554Z,80.87
2024-02-02T04:22:03.138Z,81.24
2024-02-02T04:24:42.457Z,81.16
2024-02-02T04:27:21.785Z,80.86
2024-02-02T04:30:06.297Z,81.10
2024-02-02T04:32:45.703Z,80.52
2024-02-02T04:35:25.804Z,81.36
2024-02-02T04:38:05.123Z,80.85
2024-02-02T04:40:44.407Z,80.40
2024-02-02T04:43:23.750Z,80.49
2024-02-02T04:46:08.160Z,80.40
2024-02-02T04:48:47.562Z,80.24
2024-02-02T04:51:27.093Z,80.88
2024-02-02T04:54:06.422Z,81.11
2024-02-02T04:56:45.719Z,81.14
2024-02-02T04:59:25.006Z,81.14
2024-02-02T05:02:09.406Z,80.91
2024-02-02T05:04:48.696Z,81.02
2024-02-02T05:07:28.041Z,81.08
2024-02-02T05:10:08.157Z,81.28
2024-02-02T05:12:47.477Z,81.84
2024-02-02T05:15:26.808Z,82.03
2024-02-02T05:18:12.939Z,81.92
2024-02-02T05:20:52.436Z,82.35
2024-02-02T05:23:31.770Z,82.08
2024-02-02T05:26:11.151Z,81.87
2024-02-02T05:28:50.496Z,81.69
2024-02-02T05:31:29.968Z,81.83
2024-02-02T05:34:14.517Z,82.14
2024-02-02T05:36:53.879Z,82.39
2024-02-02T05:39:33.266Z,82.57
2024-02-02T05:42:15.869Z,82.59
2024-02-02T05:44:55.252Z,82.62
2024-02-02T05:47:34.903Z,82.54
2024-02-02T05:50:19.523Z,82.78
2024-02-02T05:52:58.811Z,82.76
2024-02-02T05:55:38.171Z,83.02
2024-02-02T05:58:17.632Z,82.99
2024-02-02T06:00:56.933Z,83.14
2024-02-02T06:03:36.512Z,82.69
2024-02-02T06:06:21.078Z,83.15
2024-02-02T06:09:01.025Z,83.55
2024-02-02T06:11:40.507Z,83.08
2024-02-02T06:14:20.043Z,83.12
2024-02-02T06:16:59.344Z,81.84
2024-02-02T06:19:38.784Z,81.00
2024-02-02T06:22:24.415Z,80.66
2024-02-02T06:25:03.865Z,80.56
2024-02-02T06:27:43.224Z,81.02
2024-02-02T06:30:22.800Z,81.13
2024-02-02T06:33:02.879Z,80.40
2024-02-02T06:35:42.422Z,81.11
2024-02-02T06:38:26.849Z,81.28
2024-02-02T06:41:08.407Z,80.35
2024-02-02T06:43:47.703Z,80.54
2024-02-02T06:46:27.028Z,80.76
2024-02-02T06:49:06.487Z,81.04
2024-02-02T06:51:45.903Z,80.75
2024-02-02T06:54:30.340Z,81.29
2024-02-02T06:57:09.745Z,81.33
2024-02-02T06:59:50.697Z,81.21
2024-02-02T07:02:32.396Z,80.88
2024-02-02T07:05:12.502Z,81.57
2024-02-02T07:07:52.291Z,81.07
2024-02-02T07:10:38.438Z,81.91
2024-02-02T07:13:18.340Z,82.31
2024-02-02T07:15:57.676Z,82.57
2024-02-02T07:18:45.373Z,82.25
2024-02-02T07:21:24.749Z,82.15
2024-02-02T07:24:06.452Z,82.41
2024-02-02T07:26:51.103Z,82.51
2024-02-02T07:29:46.171Z,82.06
2024-02-02T07:32:26.326Z,82.18
2024-02-02T07:35:05.693Z,80.74
2024-02-02T07:37:55.292Z,81.13
2024-02-02T07:41:07.533Z,81.02
2024-02-02T07:43:52.341Z,80.40
2024-02-02T07:46:32.248Z,80.47
2024-02-02T07:49:11.628Z,80.06
2024-02-02T07:51:51.092Z,80.26
2024-02-02T07:54:30.441Z,79.96
2024-02-02T07:57:09.878Z,79.81
2024-02-02T07:59:54.267Z,80.95
2024-02-02T08:02:33.887Z,81.18
2024-02-02T08:05:13.676Z,80.14
2024-02-02T08:07:53.191Z,81.27
2024-02-02T08:10:32.444Z,81.22
2024-02-02T08:13:13.923Z,80.43
2024-02-02T08:15:58.449Z,80.51
2024-02-02T08:18:39.291Z,80.54
2024-02-02T08:21:18.717Z,81.43
2024-02-02T08:23:58.107Z,79.91
2024-02-02T08:26:37.410Z,79.63
2024-02-02T08:29:19.042Z,80.57
2024-02-02T08:32:03.402Z,80.86
2024-02-02T08:34:42.973Z,80.27
2024-02-02T08:37:22.486Z,79.34
2024-02-02T08:40:01.952Z,80.07
2024-02-02T08:42:41.821Z,80.72
2024-02-02T08:45:51.104Z,79.62
2024-02-02T08:48:43.101Z,79.75
2024-02-02T08:51:55.084Z,81.01
2024-02-02T08:54:46.070Z,80.75
2024-02-02T08:57:53.892Z,80.79
2024-02-02T09:00:49.794Z,80.98
2024-02-02T09:03:49.508Z,80.38
2024-02-02T09:06:49.333Z,80.68
2024-02-02T09:09:29.000Z,80.80
2024-02-02T09:12:08.381Z,81.07
2024-02-02T09:14:49.229Z,80.48
2024-02-02T09:17:28.760Z,80.40
2024-02-02T09:20:32.734Z,79.45
2024-02-02T09:23:14.814Z,79.36
2024-02-02T09:25:54.909Z,79.95
2024-02-02T09:28:50.206Z,79.66
2024-02-02T09:31:34.615Z,79.37
2024-02-02T09:34:17.140Z,79.13
2024-02-02T09:37:01.808Z,78.63
2024-02-02T09:39:57.580Z,79.32
2024-02-02T09:42:56.313Z,77.08
2024-02-02T09:45:55.563Z,75.27
2024-02-02T09:48:52.574Z,74.00
2024-02-02T09:51:46.444Z,74.06
2024-02-02T09:54:46.197Z,71.58
2024-02-02T09:57:37.917Z,71.74
2024-02-02T10:00:29.562Z,70.95
2024-02-02T10:03:24.110Z,66.44
2024-02-02T10:06:22.541Z,63.58
2024-02-02T10:09:19.688Z,63.37
2024-02-02T10:12:25.533Z,63.81
2024-02-02T10:15:49.445Z,62.72
2024-02-02T10:18:59.596Z,63.36
2024-02-02T10:21:56.938Z,63.46
2024-02-02T10:25:11.762Z,60.97
2024-02-02T10:28:20.152Z,62.97
2024-02-02T10:31:16.570Z,63.56
2024-02-02T10:34:18.012Z,65.16
2024-02-02T10:37:12.996Z,65.57
2024-02-02T10:40:10.025Z,65.45
2024-02-02T10:43:11.591Z,65.46
2024-02-02T10:46:10.169Z,65.62
2024-02-02T10:49:31.583Z,66.53
2024-02-02T10:52:22.099Z,65.33
2024-02-02T10:55:28.851Z,64.74
2024-02-02T10:58:32.077Z,63.84
2024-02-02T11:01:23.251Z,61.49
2024-02-02T11:04:10.985Z,60.50
2024-02-02T11:06:57.943Z,59.84
2024-02-02T11:09:43.077Z,59.54
2024-02-02T11:12:28.372Z,58.91
2024-02-02T11:15:28.424Z,54.35
2024-02-02T11:18:34.018Z,54.39
2024-02-02T11:21:34.720Z,51.24
2024-02-02T11:24:26.468Z,49.15
2024-02-02T11:27:13.548Z,49.04
2024-02-02T11:30:10.228Z,49.22
2024-02-02T11:33:30.261Z,49.84
2024-02-02T11:36:26.297Z,53.46
2024-02-02T11:39:20.267Z,54.08
2024-02-02T11:42:01.163Z,53.00
2024-02-02T11:44:42.337Z,51.53
2024-02-02T11:47:24.420Z,50.43
2024-02-02T11:50:14.082Z,50.34
2024-02-02T11:53:04.523Z,50.80
2024-02-02T11:55:49.355Z,49.01
2024-02-02T11:58:30.436Z,47.83
2024-02-02T12:01:34.691Z,47.12
2024-02-02T12:04:42.674Z,48.37
2024-02-02T12:07:40.048Z,48.76
2024-02-02T12:10:24.537Z,47.34
2024-02-02T12:13:08.016Z,47.49
2024-02-02T12:15:47.604Z,45.92
2024-02-02T12:18:27.929Z,44.73
2024-02-02T12:21:13.988Z,44.95
2024-02-02T12:23:58.507Z,43.79
2024-02-02T12:26:37.820Z,43.18
2024-02-02T12:29:17.315Z,44.86
2024-02-02T12:31:56.721Z,44.56
2024-02-02T12:34:36.196Z,42.41
2024-02-02T12:37:15.574Z,43.04
2024-02-02T12:40:01.359Z,41.70
2024-02-02T12:42:40.713Z,43.41
2024-02-02T12:45:21.012Z,41.11
2024-02-02T12:48:02.349Z,40.19
2024-02-02T12:50:41.693Z,41.22
2024-02-02T12:53:22.254Z,41.51
2024-02-02T12:56:07.366Z,41.41
2024-02-02T12:58:46.724Z,40.99
2024-02-02T13:01:27.158Z,40.90
2024-02-02T13:04:06.832Z,41.03
2024-02-02T13:06:47.012Z,40.72
2024-02-02T13:09:34.305Z,40.76
2024-02-02T13:12:19.209Z,41.22
2024-02-02T13:14:58.545Z,42.07
2024-02-02T13:17:37.897Z,41.47
2024-02-02T13:20:23.379Z,41.45
2024-02-02T13:23:08.204Z,41.51
2024-02-02T13:25:48.326Z,37.90
2024-02-02T13:28:40.570Z,37.35
2024-02-02T13:31:24.709Z,37.10
2024-02-02T13:34:07.321Z,37.63
2024-02-02T13:36:46.794Z,41.28
2024-02-02T13:39:29.296Z,42.43
2024-02-02T13:42:10.432Z,44.17
2024-02-02T13:44:55.259Z,44.80
2024-02-02T13:47:35.805Z,44.70
2024-02-02T13:50:21.874Z,44.78
2024-02-02T13:53:01.219Z,45.08
2024-02-02T13:55:41.686Z,45.59
2024-02-02T13:58:21.148Z,45.57
2024-02-02T14:01:05.721Z,44.75
2024-02-02T14:03:45.009Z,44.85
2024-02-02T14:06:24.574Z,45.01
2024-02-02T14:09:03.967Z,45.56
2024-02-02T14:11:43.351Z,46.14
2024-02-02T14:14:22.776Z,41.94
2024-02-02T14:17:14.080Z,42.76
2024-02-02T14:19:53.418Z,43.37
2024-02-02T14:22:35.001Z,43.58
2024-02-02T14:25:14.814Z,44.00
2024-02-02T14:27:54.158Z,44.25
2024-02-02T14:30:34.618Z,45.54
2024-02-02T14:33:25.490Z,46.64
2024-02-02T14:36:05.964Z,47.29
2024-02-02T14:38:51.739Z,47.63
2024-02-02T14:41:31.160Z,48.54
2024-02-02T14:44:11.253Z,48.74
2024-02-02T14:46:50.701Z,49.40
2024-02-02T14:49:35.456Z,50.08
2024-02-02T14:52:15.051Z,50.54
2024-02-02T14:54:54.380Z,50.81
2024-02-02T14:57:34.112Z,51.03
2024-02-02T15:00:22.368Z,51.43
2024-02-02T15:03:02.561Z,50.26
2024-02-02T15:05:47.577Z,49.73
2024-02-02T15:08:26.992Z,47.40
2024-02-02T15:11:07.175Z,47.63
2024-02-02T15:13:46.483Z,47.68
2024-02-02T15:16:25.782Z,48.00
2024-02-02T15:19:06.317Z,48.31
2024-02-02T15:21:53.795Z,49.16
2024-02-02T15:24:33.187Z,50.28
2024-02-02T15:27:12.875Z,50.47
2024-02-02T15:29:52.896Z,49.90
2024-02-02T15:32:32.192Z,49.61
2024-02-02T15:35:13.040Z,47.31
2024-02-02T15:37:57.441Z,45.94
2024-02-02T15:40:36.920Z,46.84
2024-02-02T15:43:16.310Z,48.73
2024-02-02T15:45:55.986Z,50.69
2024-02-02T15:48:35.382Z,52.29
2024-02-02T15:51:24.246Z,53.19
2024-02-02T15:54:08.758Z,53.71
2024-02-02T15:56:48.063Z,54.07
2024-02-02T15:59:27.346Z,54.25
2024-02-02T16:02:06.738Z,54.73
2024-02-02T16:04:45.987Z,54.67
2024-02-02T16:07:25.339Z,55.18
2024-02-02T16:10:09.757Z,55.48
2024-02-02T16:12:49.286Z,56.25
2024-02-02T16:15:29.862Z,56.43
2024-02-02T16:18:10.103Z,56.62
2024-02-02T16:20:49.484Z,56.91
2024-02-02T16:23:28.863Z,57.14
2024-02-02T16:26:14.814Z,57.39
2024-02-02T16:28:54.084Z,57.66
2024-02-02T16:31:33.412Z,57.83
2024-02-02T16:34:12.811Z,58.19
2024-02-02T16:36:53.682Z,58.20
2024-02-02T16:39:35.126Z,58.15
2024-02-02T16:42:19.583Z,58.43
2024-02-02T16:44:58.887Z,58.33
2024-02-02T16:47:38.152Z,58.44
2024-02-02T16:50:17.936Z,58.55
2024-02-02T16:52:57.213Z,58.76
2024-02-02T16:55:36.484Z,58.81
2024-02-02T16:58:20.858Z,58.72
2024-02-02T17:01:00.652Z,58.62
2024-02-02T17:03:42.690Z,58.71
2024-02-02T17:06:22.294Z,59.04
2024-02-02T17:09:01.988Z,59.33
2024-02-02T17:11:41.624Z,59.66
2024-02-02T17:14:26.066Z,59.72
2024-02-02T17:17:05.556Z,60.02
2024-02-02T17:19:44.881Z,60.16
2024-02-02T17:22:24.205Z,60.26
2024-02-02T17:25:03.545Z,60.71
2024-02-02T17:27:43.537Z,60.72
2024-02-02T17:30:28.316Z,60.88
2024-02-02T17:33:07.737Z,61.05
2024-02-02T17:35:47.737Z,61.10
2024-02-02T17:38:26.985Z,61.18
2024-02-02T17:41:06.270Z,61.29
2024-02-02T17:43:45.524Z,61.52
2024-02-02T17:46:29.971Z,61.78
2024-02-02T17:49:09.764Z,62.16
2024-02-02T17:51:49.337Z,62.47
2024-02-02T17:54:29.270Z,62.85
2024-02-02T17:57:09.037Z,63.43
2024-02-02T17:59:48.364Z,63.76
2024-02-02T18:02:33.210Z,64.02
2024-02-02T18:05:13.590Z,64.25
2024-02-02T18:07:52.910Z,64.60
2024-02-02T18:10:32.220Z,64.84
2024-02-02T18:13:11.874Z,65.05
2024-02-02T18:15:51.567Z,65.19
2024-02-02T18:18:35.994Z,65.51
2024-02-02T18:21:15.481Z,65.64
2024-02-02T18:23:54.875Z,65.93
2024-02-02T18:26:34.143Z,66.20
2024-02-02T18:29:13.647Z,66.50
2024-02-02T18:31:52.976Z,66.76
2024-02-02T18:34:37.362Z,66.58
2024-02-02T18:37:17.510Z,66.84
2024-02-02T18:39:56.765Z,67.07
2024-02-02T18:42:36.040Z,67.30
2024-02-02T18:45:16.544Z,67.44
2024-02-02T18:47:56.291Z,67.64
2024-02-02T18:50:40.688Z,67.94
2024-02-02T18:53:19.958Z,68.18
2024-02-02T18:55:59.721Z,68.50
2024-02-02T18:58:42.605Z,68.28
2024-02-02T19:01:31.960Z,68.76
2024-02-02T19:04:13.362Z,68.74
2024-02-02T19:06:57.862Z,69.08
2024-02-02T19:09:37.198Z,69.51
2024-02-02T19:12:17.311Z,69.70
2024-02-02T19:15:00.033Z,70.01
2024-02-02T19:17:39.437Z,70.04
2024-02-02T19:20:19.741Z,69.92
2024-02-02T19:23:05.716Z,70.25
2024-02-02T19:25:45.014Z,70.43
2024-02-02T19:28:24.294Z,70.57
2024-02-02T19:31:03.571Z,70.60
2024-02-02T19:33:43.404Z,70.69
2024-02-02T19:36:29.956Z,70.90
2024-02-02T19:39:15.766Z,71.23
2024-02-02T19:41:56.612Z,71.24
2024-02-02T19:44:35.932Z,71.32
2024-02-02T19:47:16.355Z,71.70
2024-02-02T19:49:55.642Z,71.84
2024-02-02T19:52:34.996Z,72.07
2024-02-02T19:55:19.622Z,71.90
2024-02-02T19:57:58.913Z,72.00
2024-02-02T20:00:38.166Z,72.10
2024-02-02T20:03:17.678Z,72.28
2024-02-02T20:05:56.979Z,72.40
2024-02-02T20:08:36.538Z,72.54
2024-02-02T20:11:27.484Z,71.74
2024-02-02T20:14:06.776Z,71.80
2024-02-02T20:16:46.073Z,72.18
2024-02-02T20:19:27.120Z,72.38
2024-02-02T20:22:06.467Z,72.43
2024-02-02T20:24:48.516Z,72.49
2024-02-02T20:27:32.924Z,72.56
2024-02-02T20:30:13.405Z,70.20
2024-02-02T20:32:52.742Z,70.68
2024-02-02T20:35:33.960Z,71.33
2024-02-02T20:38:13.317Z,71.75
2024-02-02T20:40:52.558Z,72.20
2024-02-02T20:43:36.877Z,72.36
2024-02-02T20:46:18.278Z,72.57
2024-02-02T20:48:57.634Z,72.83
2024-02-02T20:51:37.130Z,72.93
2024-02-02T20:54:16.741Z,73.08
2024-02-02T20:56:56.024Z,73.14
2024-02-02T20:59:40.315Z,73.30
2024-02-02T21:02:19.701Z,73.37
2024-02-02T21:05:00.212Z,73.41
2024-02-02T21:07:39.586Z,73.40
2024-02-02T21:10:18.923Z,73.49
2024-02-02T21:12:58.298Z,73.44
2024-02-02T21:15:45.054Z,73.60
2024-02-02T21:18:25.703Z,73.71
2024-02-02T21:21:05.522Z,73.66
2024-02-02T21:23:47.365Z,73.66
2024-02-02T21:26:28.514Z,73.75
2024-02-02T21:29:07.911Z,73.71
2024-02-02T21:31:52.259Z,73.95
2024-02-02T21:34:31.646Z,73.60
2024-02-02T21:37:11.445Z,73.57
2024-02-02T21:39:50.718Z,73.82
2024-02-02T21:42:30.048Z,73.97
2024-02-02T21:45:09.373Z,74.07
2024-02-02T21:47:53.944Z,74.00
2024-02-02T21:50:33.281Z,73.80
2024-02-02T21:53:12.872Z,73.80
2024-02-02T21:55:52.671Z,73.25
2024-02-02T21:58:31.966Z,73.77
2024-02-02T22:01:11.674Z,73.95
2024-02-02T22:03:56.201Z,74.01
2024-02-02T22:06:35.639Z,72.24
2024-02-02T22:09:15.119Z,72.78
2024-02-02T22:11:55.191Z,72.52
2024-02-02T22:14:37.775Z,73.14
2024-02-02T22:17:17.459Z,73.28
2024-02-02T22:20:02.016Z,73.66
2024-02-02T22:22:41.347Z,72.20
2024-02-02T22:25:20.713Z,70.88
2024-02-02T22:28:00.560Z,71.29
2024-02-02T22:30:39.942Z,72.35
2024-02-02T22:33:19.524Z,72.69
2024-02-02T22:36:03.980Z,71.87
2024-02-02T22:38:43.401Z,71.96
2024-02-02T22:41:33.000Z,72.65
2024-02-02T22:44:14.138Z,72.32
2024-02-02T22:46:53.426Z,71.12
2024-02-02T22:49:34.401Z,71.97
2024-02-02T22:52:18.811Z,72.69
2024-02-02T22:54:58.072Z,72.69
2024-02-02T22:57:37.422Z,73.56
2024-02-02T23:00:21.841Z,73.97
2024-02-02T23:03:01.150Z,73.90
2024-02-02T23:05:43.100Z,74.44
2024-02-02T23:08:27.579Z,71.55
2024-02-02T23:11:06.837Z,71.08
2024-02-02T23:13:46.263Z,72.42
2024-02-02T23:16:25.556Z,73.11
2024-02-02T23:19:04.965Z,73.38
2024-02-02T23:21:44.291Z,73.86
2024-02-02T23:24:28.719Z,74.32
2024-02-02T23:27:08.115Z,73.63
2024-02-02T23:29:47.428Z,73.90
2024-02-02T23:32:26.825Z,74.45
2024-02-02T23:35:06.681Z,74.51
2024-02-02T23:37:45.967Z,75.08
2024-02-02T23:40:31.221Z,75.75
2024-02-02T23:43:10.605Z,74.70
2024-02-02T23:45:50.074Z,75.41
2024-02-02T23:48:29.500Z,75.64
2024-02-02T23:51:08.916Z,75.74
2024-02-02T23:53:48.180Z,74.73
2024-02-02T23:56:32.617Z,75.02
2024-02-02T23:59:11.910Z,75.65
